sensor_id;sensor_type;location;lat;lon;timestamp;P1;durP1;ratioP1;P2;durP2;ratioP2
7729;SDS011;3908;52.310;7.230;2023-02-26T00:02:33;4.30;;;1.87;;
7729;SDS011;3908;52.310;7.230;2023-02-26T00:05:21;4.53;;;1.90;;
7729;SDS011;3908;52.310;7.230;2023-02-26T00:08:09;3.50;;;1.90;;
7729;SDS011;3908;52.310;7.230;2023-02-26T00:10:56;1.90;;;1.60;;
7729;SDS011;3908;52.310;7.230;2023-02-26T00:13:46;7.03;;;2.10;;
7729;SDS011;3908;52.310;7.230;2023-02-26T00:16:34;3.73;;;2.03;;
7729;SDS011;3908;52.310;7.230;2023-02-26T00:19:22;5.03;;;2.23;;
7729;SDS011;3908;52.310;7.230;2023-02-26T00:22:09;7.40;;;2.37;;
7729;SDS011;3908;52.310;7.230;2023-02-26T00:24:58;3.30;;;1.70;;
7729;SDS011;3908;52.310;7.230;2023-02-26T00:27:45;3.23;;;2.03;;
7729;SDS011;3908;52.310;7.230;2023-02-26T00:30:32;1.60;;;1.50;;
7729;SDS011;3908;52.310;7.230;2023-02-26T00:33:20;2.60;;;1.70;;
7729;SDS011;3908;52.310;7.230;2023-02-26T00:36:12;4.77;;;1.60;;
7729;SDS011;3908;52.310;7.230;2023-02-26T00:39:07;2.40;;;1.77;;
7729;SDS011;3908;52.310;7.230;2023-02-26T00:42:14;2.40;;;1.80;;
7729;SDS011;3908;52.310;7.230;2023-02-26T00:45:01;5.83;;;2.20;;
7729;SDS011;3908;52.310;7.230;2023-02-26T00:47:50;3.63;;;1.70;;
7729;SDS011;3908;52.310;7.230;2023-02-26T00:50:43;3.90;;;1.80;;
7729;SDS011;3908;52.310;7.230;2023-02-26T00:53:39;2.50;;;1.50;;
7729;SDS011;3908;52.310;7.230;2023-02-26T00:56:32;3.07;;;1.80;;
7729;SDS011;3908;52.310;7.230;2023-02-26T00:59:21;4.60;;;2.10;;
7729;SDS011;3908;52.310;7.230;2023-02-26T01:02:08;4.33;;;2.10;;
7729;SDS011;3908;52.310;7.230;2023-02-26T01:04:56;4.93;;;1.77;;
7729;SDS011;3908;52.310;7.230;2023-02-26T01:07:45;3.80;;;1.83;;
7729;SDS011;3908;52.310;7.230;2023-02-26T01:10:38;2.17;;;1.63;;
7729;SDS011;3908;52.310;7.230;2023-02-26T01:13:26;5.67;;;2.07;;
7729;SDS011;3908;52.310;7.230;2023-02-26T01:16:18;4.37;;;1.73;;
7729;SDS011;3908;52.310;7.230;2023-02-26T01:19:08;1.30;;;1.20;;
7729;SDS011;3908;52.310;7.230;2023-02-26T01:22:05;3.83;;;1.90;;
7729;SDS011;3908;52.310;7.230;2023-02-26T01:24:58;3.03;;;1.73;;
7729;SDS011;3908;52.310;7.230;2023-02-26T01:27:50;3.80;;;2.00;;
7729;SDS011;3908;52.310;7.230;2023-02-26T01:30:37;9.47;;;2.00;;
7729;SDS011;3908;52.310;7.230;2023-02-26T01:33:26;3.63;;;1.80;;
7729;SDS011;3908;52.310;7.230;2023-02-26T01:36:19;2.03;;;1.90;;
7729;SDS011;3908;52.310;7.230;2023-02-26T01:39:10;4.60;;;2.03;;
7729;SDS011;3908;52.310;7.230;2023-02-26T01:42:06;3.37;;;1.60;;
7729;SDS011;3908;52.310;7.230;2023-02-26T01:45:00;5.93;;;1.50;;
7729;SDS011;3908;52.310;7.230;2023-02-26T01:47:53;3.40;;;1.57;;
7729;SDS011;3908;52.310;7.230;2023-02-26T01:50:47;3.10;;;2.07;;
7729;SDS011;3908;52.310;7.230;2023-02-26T01:53:34;4.57;;;1.90;;
7729;SDS011;3908;52.310;7.230;2023-02-26T01:56:21;4.30;;;1.80;;
7729;SDS011;3908;52.310;7.230;2023-02-26T01:59:09;4.40;;;1.97;;
7729;SDS011;3908;52.310;7.230;2023-02-26T02:02:01;5.13;;;1.90;;
7729;SDS011;3908;52.310;7.230;2023-02-26T02:04:50;5.93;;;2.80;;
7729;SDS011;3908;52.310;7.230;2023-02-26T02:07:39;1.83;;;1.47;;
7729;SDS011;3908;52.310;7.230;2023-02-26T02:10:26;5.27;;;2.10;;
7729;SDS011;3908;52.310;7.230;2023-02-26T02:13:17;3.47;;;1.90;;
7729;SDS011;3908;52.310;7.230;2023-02-26T02:16:16;3.43;;;1.67;;
7729;SDS011;3908;52.310;7.230;2023-02-26T02:19:10;5.13;;;1.70;;
7729;SDS011;3908;52.310;7.230;2023-02-26T02:22:25;6.40;;;1.90;;
7729;SDS011;3908;52.310;7.230;2023-02-26T02:28:53;4.10;;;1.87;;
7729;SDS011;3908;52.310;7.230;2023-02-26T02:32:00;2.47;;;1.67;;
7729;SDS011;3908;52.310;7.230;2023-02-26T02:34:53;3.13;;;1.90;;
7729;SDS011;3908;52.310;7.230;2023-02-26T02:37:46;5.90;;;1.67;;
7729;SDS011;3908;52.310;7.230;2023-02-26T02:40:36;4.07;;;1.50;;
7729;SDS011;3908;52.310;7.230;2023-02-26T02:43:29;6.87;;;2.10;;
7729;SDS011;3908;52.310;7.230;2023-02-26T02:46:20;5.43;;;1.63;;
7729;SDS011;3908;52.310;7.230;2023-02-26T02:49:13;3.10;;;1.80;;
7729;SDS011;3908;52.310;7.230;2023-02-26T02:52:04;5.93;;;2.30;;
7729;SDS011;3908;52.310;7.230;2023-02-26T02:55:02;5.20;;;1.90;;
7729;SDS011;3908;52.310;7.230;2023-02-26T02:57:54;3.17;;;1.80;;
7729;SDS011;3908;52.310;7.230;2023-02-26T03:00:45;3.93;;;1.83;;
7729;SDS011;3908;52.310;7.230;2023-02-26T03:03:36;3.77;;;1.70;;
7729;SDS011;3908;52.310;7.230;2023-02-26T03:06:31;2.90;;;1.70;;
7729;SDS011;3908;52.310;7.230;2023-02-26T03:09:19;2.37;;;1.60;;
7729;SDS011;3908;52.310;7.230;2023-02-26T03:12:06;2.70;;;1.60;;
7729;SDS011;3908;52.310;7.230;2023-02-26T03:14:53;1.77;;;1.60;;
7729;SDS011;3908;52.310;7.230;2023-02-26T03:17:42;3.20;;;1.80;;
7729;SDS011;3908;52.310;7.230;2023-02-26T03:20:43;6.40;;;2.10;;
7729;SDS011;3908;52.310;7.230;2023-02-26T03:23:41;6.43;;;2.10;;
7729;SDS011;3908;52.310;7.230;2023-02-26T03:26:37;3.90;;;1.80;;
7729;SDS011;3908;52.310;7.230;2023-02-26T03:29:32;5.07;;;2.30;;
7729;SDS011;3908;52.310;7.230;2023-02-26T03:32:24;2.97;;;1.40;;
7729;SDS011;3908;52.310;7.230;2023-02-26T03:35:15;2.27;;;1.87;;
7729;SDS011;3908;52.310;7.230;2023-02-26T03:38:08;4.73;;;1.67;;
7729;SDS011;3908;52.310;7.230;2023-02-26T03:41:03;3.87;;;2.07;;
7729;SDS011;3908;52.310;7.230;2023-02-26T03:43:54;3.57;;;2.07;;
7729;SDS011;3908;52.310;7.230;2023-02-26T03:46:44;5.77;;;2.00;;
7729;SDS011;3908;52.310;7.230;2023-02-26T03:49:36;6.63;;;2.10;;
7729;SDS011;3908;52.310;7.230;2023-02-26T03:52:27;6.27;;;2.13;;
7729;SDS011;3908;52.310;7.230;2023-02-26T03:55:19;5.00;;;1.83;;
7729;SDS011;3908;52.310;7.230;2023-02-26T03:58:13;2.97;;;1.70;;
7729;SDS011;3908;52.310;7.230;2023-02-26T04:01:01;5.47;;;2.10;;
7729;SDS011;3908;52.310;7.230;2023-02-26T04:03:52;6.27;;;2.00;;
7729;SDS011;3908;52.310;7.230;2023-02-26T04:06:43;4.10;;;1.90;;
7729;SDS011;3908;52.310;7.230;2023-02-26T04:09:31;3.47;;;1.80;;
7729;SDS011;3908;52.310;7.230;2023-02-26T04:12:19;3.07;;;1.70;;
7729;SDS011;3908;52.310;7.230;2023-02-26T04:15:10;4.27;;;2.00;;
7729;SDS011;3908;52.310;7.230;2023-02-26T04:17:57;3.17;;;2.00;;
7729;SDS011;3908;52.310;7.230;2023-02-26T04:20:44;5.73;;;1.93;;
7729;SDS011;3908;52.310;7.230;2023-02-26T04:23:31;3.33;;;1.87;;
7729;SDS011;3908;52.310;7.230;2023-02-26T04:26:18;3.63;;;2.07;;
7729;SDS011;3908;52.310;7.230;2023-02-26T04:29:05;2.77;;;1.83;;
7729;SDS011;3908;52.310;7.230;2023-02-26T04:31:53;4.57;;;1.90;;
7729;SDS011;3908;52.310;7.230;2023-02-26T04:34:41;1.83;;;1.50;;
7729;SDS011;3908;52.310;7.230;2023-02-26T04:37:28;2.27;;;1.83;;
7729;SDS011;3908;52.310;7.230;2023-02-26T04:40:15;4.40;;;2.03;;
7729;SDS011;3908;52.310;7.230;2023-02-26T04:43:02;5.27;;;1.80;;
7729;SDS011;3908;52.310;7.230;2023-02-26T04:45:49;6.10;;;1.80;;
7729;SDS011;3908;52.310;7.230;2023-02-26T04:48:38;5.30;;;2.17;;
7729;SDS011;3908;52.310;7.230;2023-02-26T04:51:25;3.00;;;1.70;;
7729;SDS011;3908;52.310;7.230;2023-02-26T04:54:12;7.07;;;2.10;;
7729;SDS011;3908;52.310;7.230;2023-02-26T04:56:59;2.20;;;2.00;;
7729;SDS011;3908;52.310;7.230;2023-02-26T04:59:46;3.83;;;1.87;;
7729;SDS011;3908;52.310;7.230;2023-02-26T05:02:33;4.83;;;1.87;;
7729;SDS011;3908;52.310;7.230;2023-02-26T05:05:21;3.03;;;1.80;;
7729;SDS011;3908;52.310;7.230;2023-02-26T05:08:08;2.50;;;1.70;;
7729;SDS011;3908;52.310;7.230;2023-02-26T05:10:55;5.53;;;2.00;;
7729;SDS011;3908;52.310;7.230;2023-02-26T05:13:43;3.53;;;2.37;;
7729;SDS011;3908;52.310;7.230;2023-02-26T05:16:30;4.83;;;1.57;;
7729;SDS011;3908;52.310;7.230;2023-02-26T05:19:17;4.63;;;1.83;;
7729;SDS011;3908;52.310;7.230;2023-02-26T05:22:05;2.63;;;2.33;;
7729;SDS011;3908;52.310;7.230;2023-02-26T05:24:52;6.70;;;2.27;;
7729;SDS011;3908;52.310;7.230;2023-02-26T05:27:40;5.87;;;1.90;;
7729;SDS011;3908;52.310;7.230;2023-02-26T05:30:28;4.83;;;2.13;;
7729;SDS011;3908;52.310;7.230;2023-02-26T05:33:15;4.03;;;1.57;;
7729;SDS011;3908;52.310;7.230;2023-02-26T05:36:02;2.33;;;2.10;;
7729;SDS011;3908;52.310;7.230;2023-02-26T05:38:52;5.90;;;2.00;;
7729;SDS011;3908;52.310;7.230;2023-02-26T05:41:39;4.20;;;2.00;;
7729;SDS011;3908;52.310;7.230;2023-02-26T05:44:26;2.27;;;2.00;;
7729;SDS011;3908;52.310;7.230;2023-02-26T05:47:13;3.83;;;2.00;;
7729;SDS011;3908;52.310;7.230;2023-02-26T05:50:00;4.93;;;1.83;;
7729;SDS011;3908;52.310;7.230;2023-02-26T05:52:47;2.47;;;1.60;;
7729;SDS011;3908;52.310;7.230;2023-02-26T05:55:36;1.93;;;1.60;;
7729;SDS011;3908;52.310;7.230;2023-02-26T05:58:23;1.73;;;1.60;;
7729;SDS011;3908;52.310;7.230;2023-02-26T06:01:10;3.00;;;1.50;;
7729;SDS011;3908;52.310;7.230;2023-02-26T06:03:57;3.73;;;1.60;;
7729;SDS011;3908;52.310;7.230;2023-02-26T06:06:44;1.87;;;1.77;;
7729;SDS011;3908;52.310;7.230;2023-02-26T06:09:31;3.20;;;1.80;;
7729;SDS011;3908;52.310;7.230;2023-02-26T06:12:19;4.13;;;2.00;;
7729;SDS011;3908;52.310;7.230;2023-02-26T06:15:07;5.60;;;1.60;;
7729;SDS011;3908;52.310;7.230;2023-02-26T06:17:55;3.27;;;1.50;;
7729;SDS011;3908;52.310;7.230;2023-02-26T06:20:42;7.23;;;1.57;;
7729;SDS011;3908;52.310;7.230;2023-02-26T06:23:29;2.80;;;1.97;;
7729;SDS011;3908;52.310;7.230;2023-02-26T06:26:16;2.63;;;1.60;;
7729;SDS011;3908;52.310;7.230;2023-02-26T06:29:04;2.57;;;2.13;;
7729;SDS011;3908;52.310;7.230;2023-02-26T06:31:52;6.33;;;2.13;;
7729;SDS011;3908;52.310;7.230;2023-02-26T06:34:39;8.70;;;2.33;;
7729;SDS011;3908;52.310;7.230;2023-02-26T06:37:26;4.50;;;2.00;;
7729;SDS011;3908;52.310;7.230;2023-02-26T06:40:13;5.53;;;2.20;;
7729;SDS011;3908;52.310;7.230;2023-02-26T06:43:00;3.00;;;2.07;;
7729;SDS011;3908;52.310;7.230;2023-02-26T06:45:49;5.13;;;1.77;;
7729;SDS011;3908;52.310;7.230;2023-02-26T06:48:36;3.30;;;1.60;;
7729;SDS011;3908;52.310;7.230;2023-02-26T06:51:23;4.77;;;1.93;;
7729;SDS011;3908;52.310;7.230;2023-02-26T06:54:10;2.00;;;1.90;;
7729;SDS011;3908;52.310;7.230;2023-02-26T06:56:57;4.70;;;2.00;;
7729;SDS011;3908;52.310;7.230;2023-02-26T06:59:44;4.70;;;2.10;;
7729;SDS011;3908;52.310;7.230;2023-02-26T07:02:33;4.97;;;1.90;;
7729;SDS011;3908;52.310;7.230;2023-02-26T07:05:20;6.90;;;2.47;;
7729;SDS011;3908;52.310;7.230;2023-02-26T07:08:07;1.80;;;1.50;;
7729;SDS011;3908;52.310;7.230;2023-02-26T07:10:54;3.40;;;1.97;;
7729;SDS011;3908;52.310;7.230;2023-02-26T07:13:41;2.33;;;1.83;;
7729;SDS011;3908;52.310;7.230;2023-02-26T07:16:28;2.13;;;1.80;;
7729;SDS011;3908;52.310;7.230;2023-02-26T07:19:16;3.13;;;1.77;;
7729;SDS011;3908;52.310;7.230;2023-02-26T07:22:03;4.00;;;1.80;;
7729;SDS011;3908;52.310;7.230;2023-02-26T07:24:50;2.93;;;1.90;;
7729;SDS011;3908;52.310;7.230;2023-02-26T07:27:37;3.90;;;2.00;;
7729;SDS011;3908;52.310;7.230;2023-02-26T07:30:24;3.63;;;1.50;;
7729;SDS011;3908;52.310;7.230;2023-02-26T07:33:12;4.23;;;2.13;;
7729;SDS011;3908;52.310;7.230;2023-02-26T07:36:00;4.00;;;1.83;;
7729;SDS011;3908;52.310;7.230;2023-02-26T07:38:47;3.40;;;2.00;;
7729;SDS011;3908;52.310;7.230;2023-02-26T07:41:34;6.50;;;3.03;;
7729;SDS011;3908;52.310;7.230;2023-02-26T07:44:21;6.73;;;2.03;;
7729;SDS011;3908;52.310;7.230;2023-02-26T07:47:09;2.93;;;2.10;;
7729;SDS011;3908;52.310;7.230;2023-02-26T07:49:56;7.37;;;2.70;;
7729;SDS011;3908;52.310;7.230;2023-02-26T07:52:44;13.03;;;2.33;;
7729;SDS011;3908;52.310;7.230;2023-02-26T07:55:32;4.73;;;2.10;;
7729;SDS011;3908;52.310;7.230;2023-02-26T07:58:19;1.90;;;1.80;;
7729;SDS011;3908;52.310;7.230;2023-02-26T08:01:06;3.13;;;1.90;;
7729;SDS011;3908;52.310;7.230;2023-02-26T08:03:53;2.33;;;2.13;;
7729;SDS011;3908;52.310;7.230;2023-02-26T08:06:40;6.33;;;1.57;;
7729;SDS011;3908;52.310;7.230;2023-02-26T08:09:28;2.03;;;1.57;;
7729;SDS011;3908;52.310;7.230;2023-02-26T08:12:16;2.83;;;1.60;;
7729;SDS011;3908;52.310;7.230;2023-02-26T08:15:03;4.43;;;1.97;;
7729;SDS011;3908;52.310;7.230;2023-02-26T08:17:51;1.63;;;1.17;;
7729;SDS011;3908;52.310;7.230;2023-02-26T08:20:38;1.70;;;1.40;;
7729;SDS011;3908;52.310;7.230;2023-02-26T08:23:25;5.60;;;1.60;;
7729;SDS011;3908;52.310;7.230;2023-02-26T08:26:13;2.80;;;1.70;;
7729;SDS011;3908;52.310;7.230;2023-02-26T08:29:00;5.83;;;1.70;;
7729;SDS011;3908;52.310;7.230;2023-02-26T08:31:48;1.57;;;1.47;;
7729;SDS011;3908;52.310;7.230;2023-02-26T08:34:35;2.53;;;1.50;;
7729;SDS011;3908;52.310;7.230;2023-02-26T08:37:22;2.23;;;1.40;;
7729;SDS011;3908;52.310;7.230;2023-02-26T08:40:09;3.43;;;1.43;;
7729;SDS011;3908;52.310;7.230;2023-02-26T08:42:58;3.97;;;1.40;;
7729;SDS011;3908;52.310;7.230;2023-02-26T08:45:45;2.90;;;1.57;;
7729;SDS011;3908;52.310;7.230;2023-02-26T08:48:34;2.50;;;1.30;;
7729;SDS011;3908;52.310;7.230;2023-02-26T08:51:21;3.83;;;1.60;;
7729;SDS011;3908;52.310;7.230;2023-02-26T08:54:08;3.83;;;1.60;;
7729;SDS011;3908;52.310;7.230;2023-02-26T08:56:55;7.03;;;1.80;;
7729;SDS011;3908;52.310;7.230;2023-02-26T08:59:43;3.13;;;1.30;;
7729;SDS011;3908;52.310;7.230;2023-02-26T09:02:30;2.33;;;1.20;;
7729;SDS011;3908;52.310;7.230;2023-02-26T09:05:17;2.23;;;1.03;;
7729;SDS011;3908;52.310;7.230;2023-02-26T09:08:05;4.20;;;1.40;;
7729;SDS011;3908;52.310;7.230;2023-02-26T09:10:52;2.10;;;1.43;;
7729;SDS011;3908;52.310;7.230;2023-02-26T09:13:39;3.47;;;1.50;;
7729;SDS011;3908;52.310;7.230;2023-02-26T09:16:28;4.87;;;1.50;;
7729;SDS011;3908;52.310;7.230;2023-02-26T09:19:16;2.07;;;1.20;;
7729;SDS011;3908;52.310;7.230;2023-02-26T09:22:03;4.63;;;1.40;;
7729;SDS011;3908;52.310;7.230;2023-02-26T09:24:50;2.90;;;1.40;;
7729;SDS011;3908;52.310;7.230;2023-02-26T09:27:37;1.70;;;1.30;;
7729;SDS011;3908;52.310;7.230;2023-02-26T09:30:24;1.87;;;1.40;;
7729;SDS011;3908;52.310;7.230;2023-02-26T09:33:14;2.30;;;1.20;;
7729;SDS011;3908;52.310;7.230;2023-02-26T09:36:01;2.80;;;1.37;;
7729;SDS011;3908;52.310;7.230;2023-02-26T09:38:49;4.43;;;1.67;;
7729;SDS011;3908;52.310;7.230;2023-02-26T09:41:37;3.73;;;1.40;;
7729;SDS011;3908;52.310;7.230;2023-02-26T09:44:27;1.57;;;1.40;;
7729;SDS011;3908;52.310;7.230;2023-02-26T09:47:16;2.20;;;1.30;;
7729;SDS011;3908;52.310;7.230;2023-02-26T09:50:12;2.40;;;1.20;;
7729;SDS011;3908;52.310;7.230;2023-02-26T09:53:05;5.13;;;1.30;;
7729;SDS011;3908;52.310;7.230;2023-02-26T09:55:59;1.20;;;1.10;;
7729;SDS011;3908;52.310;7.230;2023-02-26T09:58:48;5.03;;;1.10;;
7729;SDS011;3908;52.310;7.230;2023-02-26T10:01:38;4.67;;;1.47;;
7729;SDS011;3908;52.310;7.230;2023-02-26T10:04:40;2.37;;;1.40;;
7729;SDS011;3908;52.310;7.230;2023-02-26T10:07:38;1.70;;;1.00;;
7729;SDS011;3908;52.310;7.230;2023-02-26T10:10:32;1.43;;;1.00;;
7729;SDS011;3908;52.310;7.230;2023-02-26T10:13:30;4.60;;;1.10;;
7729;SDS011;3908;52.310;7.230;2023-02-26T10:16:22;1.47;;;1.10;;
7729;SDS011;3908;52.310;7.230;2023-02-26T10:19:13;2.77;;;1.10;;
7729;SDS011;3908;52.310;7.230;2023-02-26T10:22:05;3.17;;;0.93;;
7729;SDS011;3908;52.310;7.230;2023-02-26T10:25:04;4.97;;;1.00;;
7729;SDS011;3908;52.310;7.230;2023-02-26T10:27:54;2.00;;;1.10;;
7729;SDS011;3908;52.310;7.230;2023-02-26T10:30:48;2.93;;;1.10;;
7729;SDS011;3908;52.310;7.230;2023-02-26T10:33:43;1.30;;;1.20;;
7729;SDS011;3908;52.310;7.230;2023-02-26T10:36:38;2.70;;;1.10;;
7729;SDS011;3908;52.310;7.230;2023-02-26T10:39:34;3.83;;;1.20;;
7729;SDS011;3908;52.310;7.230;2023-02-26T10:42:31;1.10;;;1.00;;
7729;SDS011;3908;52.310;7.230;2023-02-26T10:45:26;3.20;;;1.60;;
7729;SDS011;3908;52.310;7.230;2023-02-26T10:48:26;1.23;;;1.13;;
7729;SDS011;3908;52.310;7.230;2023-02-26T10:51:25;1.77;;;1.10;;
7729;SDS011;3908;52.310;7.230;2023-02-26T10:54:18;5.07;;;1.03;;
7729;SDS011;3908;52.310;7.230;2023-02-26T10:57:10;2.53;;;1.20;;
7729;SDS011;3908;52.310;7.230;2023-02-26T11:00:06;1.90;;;1.00;;
7729;SDS011;3908;52.310;7.230;2023-02-26T11:03:03;1.47;;;1.10;;
7729;SDS011;3908;52.310;7.230;2023-02-26T11:05:52;3.17;;;1.13;;
7729;SDS011;3908;52.310;7.230;2023-02-26T11:08:42;2.03;;;1.00;;
7729;SDS011;3908;52.310;7.230;2023-02-26T11:11:38;2.33;;;1.10;;
7729;SDS011;3908;52.310;7.230;2023-02-26T11:14:28;3.67;;;1.13;;
7729;SDS011;3908;52.310;7.230;2023-02-26T11:17:20;1.63;;;1.10;;
7729;SDS011;3908;52.310;7.230;2023-02-26T11:20:14;2.93;;;1.13;;
7729;SDS011;3908;52.310;7.230;2023-02-26T11:23:05;2.80;;;1.47;;
7729;SDS011;3908;52.310;7.230;2023-02-26T11:25:58;3.17;;;1.20;;
7729;SDS011;3908;52.310;7.230;2023-02-26T11:28:49;1.40;;;1.13;;
7729;SDS011;3908;52.310;7.230;2023-02-26T11:31:40;2.40;;;1.00;;
7729;SDS011;3908;52.310;7.230;2023-02-26T11:34:29;3.77;;;1.20;;
7729;SDS011;3908;52.310;7.230;2023-02-26T11:37:17;3.10;;;1.20;;
7729;SDS011;3908;52.310;7.230;2023-02-26T11:40:12;2.93;;;1.20;;
7729;SDS011;3908;52.310;7.230;2023-02-26T11:43:02;1.20;;;1.10;;
7729;SDS011;3908;52.310;7.230;2023-02-26T11:45:51;1.30;;;1.07;;
7729;SDS011;3908;52.310;7.230;2023-02-26T11:48:42;3.70;;;1.00;;
7729;SDS011;3908;52.310;7.230;2023-02-26T11:51:33;2.40;;;1.27;;
7729;SDS011;3908;52.310;7.230;2023-02-26T11:54:21;4.37;;;1.50;;
7729;SDS011;3908;52.310;7.230;2023-02-26T11:57:13;3.13;;;1.27;;
7729;SDS011;3908;52.310;7.230;2023-02-26T12:00:02;3.83;;;1.20;;
7729;SDS011;3908;52.310;7.230;2023-02-26T12:03:04;2.00;;;1.30;;
7729;SDS011;3908;52.310;7.230;2023-02-26T12:05:55;2.40;;;1.27;;
7729;SDS011;3908;52.310;7.230;2023-02-26T12:08:45;1.63;;;1.30;;
7729;SDS011;3908;52.310;7.230;2023-02-26T12:14:57;1.77;;;1.33;;
7729;SDS011;3908;52.310;7.230;2023-02-26T12:18:26;2.67;;;1.80;;
7729;SDS011;3908;52.310;7.230;2023-02-26T12:21:28;2.57;;;1.20;;
7729;SDS011;3908;52.310;7.230;2023-02-26T12:24:30;2.33;;;1.47;;
7729;SDS011;3908;52.310;7.230;2023-02-26T12:27:32;1.93;;;1.03;;
7729;SDS011;3908;52.310;7.230;2023-02-26T12:30:40;1.47;;;1.17;;
7729;SDS011;3908;52.310;7.230;2023-02-26T12:33:39;1.43;;;1.23;;
7729;SDS011;3908;52.310;7.230;2023-02-26T12:36:39;3.13;;;1.20;;
7729;SDS011;3908;52.310;7.230;2023-02-26T12:39:41;2.43;;;1.30;;
7729;SDS011;3908;52.310;7.230;2023-02-26T12:42:43;2.93;;;1.20;;
7729;SDS011;3908;52.310;7.230;2023-02-26T12:45:41;1.13;;;1.03;;
7729;SDS011;3908;52.310;7.230;2023-02-26T12:51:59;1.47;;;1.00;;
7729;SDS011;3908;52.310;7.230;2023-02-26T12:55:04;1.93;;;1.20;;
7729;SDS011;3908;52.310;7.230;2023-02-26T13:01:07;2.77;;;0.93;;
7729;SDS011;3908;52.310;7.230;2023-02-26T13:04:19;1.50;;;1.10;;
7729;SDS011;3908;52.310;7.230;2023-02-26T13:10:56;2.23;;;1.23;;
7729;SDS011;3908;52.310;7.230;2023-02-26T13:13:55;2.07;;;0.87;;
7729;SDS011;3908;52.310;7.230;2023-02-26T13:16:50;2.10;;;1.10;;
7729;SDS011;3908;52.310;7.230;2023-02-26T13:19:46;1.57;;;1.10;;
7729;SDS011;3908;52.310;7.230;2023-02-26T13:22:37;1.00;;;0.90;;
7729;SDS011;3908;52.310;7.230;2023-02-26T13:25:31;1.10;;;1.00;;
7729;SDS011;3908;52.310;7.230;2023-02-26T13:28:26;2.13;;;1.07;;
7729;SDS011;3908;52.310;7.230;2023-02-26T13:31:25;2.87;;;1.00;;
7729;SDS011;3908;52.310;7.230;2023-02-26T13:34:14;2.07;;;1.53;;
7729;SDS011;3908;52.310;7.230;2023-02-26T13:37:19;2.87;;;1.20;;
7729;SDS011;3908;52.310;7.230;2023-02-26T13:40:22;3.13;;;1.30;;
7729;SDS011;3908;52.310;7.230;2023-02-26T13:43:36;1.93;;;1.00;;
7729;SDS011;3908;52.310;7.230;2023-02-26T13:46:37;1.20;;;1.10;;
7729;SDS011;3908;52.310;7.230;2023-02-26T13:49:36;1.00;;;0.90;;
7729;SDS011;3908;52.310;7.230;2023-02-26T13:52:34;1.00;;;0.90;;
7729;SDS011;3908;52.310;7.230;2023-02-26T13:55:36;1.63;;;1.23;;
7729;SDS011;3908;52.310;7.230;2023-02-26T13:58:27;1.20;;;0.90;;
7729;SDS011;3908;52.310;7.230;2023-02-26T14:01:26;3.40;;;1.50;;
7729;SDS011;3908;52.310;7.230;2023-02-26T14:04:24;1.37;;;1.10;;
7729;SDS011;3908;52.310;7.230;2023-02-26T14:07:14;2.53;;;1.50;;
7729;SDS011;3908;52.310;7.230;2023-02-26T14:10:02;2.20;;;1.10;;
7729;SDS011;3908;52.310;7.230;2023-02-26T14:13:01;2.03;;;1.10;;
7729;SDS011;3908;52.310;7.230;2023-02-26T14:15:58;1.33;;;1.00;;
7729;SDS011;3908;52.310;7.230;2023-02-26T14:18:49;1.30;;;0.90;;
7729;SDS011;3908;52.310;7.230;2023-02-26T14:21:45;1.30;;;1.03;;
7729;SDS011;3908;52.310;7.230;2023-02-26T14:24:35;2.67;;;1.10;;
7729;SDS011;3908;52.310;7.230;2023-02-26T14:27:30;1.70;;;1.00;;
7729;SDS011;3908;52.310;7.230;2023-02-26T14:30:24;3.50;;;1.20;;
7729;SDS011;3908;52.310;7.230;2023-02-26T14:33:14;1.67;;;1.20;;
7729;SDS011;3908;52.310;7.230;2023-02-26T14:36:05;1.10;;;0.90;;
7729;SDS011;3908;52.310;7.230;2023-02-26T14:39:01;2.30;;;1.20;;
7729;SDS011;3908;52.310;7.230;2023-02-26T14:41:51;2.43;;;1.10;;
7729;SDS011;3908;52.310;7.230;2023-02-26T14:44:45;2.40;;;0.90;;
7729;SDS011;3908;52.310;7.230;2023-02-26T14:47:34;3.13;;;1.30;;
7729;SDS011;3908;52.310;7.230;2023-02-26T14:50:22;2.77;;;1.30;;
7729;SDS011;3908;52.310;7.230;2023-02-26T14:56:42;1.37;;;1.00;;
7729;SDS011;3908;52.310;7.230;2023-02-26T15:03:09;3.70;;;0.90;;
7729;SDS011;3908;52.310;7.230;2023-02-26T15:06:15;1.70;;;1.07;;
7729;SDS011;3908;52.310;7.230;2023-02-26T15:09:14;3.13;;;1.17;;
7729;SDS011;3908;52.310;7.230;2023-02-26T15:12:11;2.27;;;1.00;;
7729;SDS011;3908;52.310;7.230;2023-02-26T15:15:18;0.93;;;0.93;;
7729;SDS011;3908;52.310;7.230;2023-02-26T15:18:21;2.57;;;1.00;;
7729;SDS011;3908;52.310;7.230;2023-02-26T15:21:25;2.30;;;0.90;;
7729;SDS011;3908;52.310;7.230;2023-02-26T15:24:20;1.10;;;0.80;;
7729;SDS011;3908;52.310;7.230;2023-02-26T15:27:08;3.50;;;1.20;;
7729;SDS011;3908;52.310;7.230;2023-02-26T15:30:01;3.00;;;1.10;;
7729;SDS011;3908;52.310;7.230;2023-02-26T15:32:48;1.60;;;1.27;;
7729;SDS011;3908;52.310;7.230;2023-02-26T15:35:43;1.20;;;1.00;;
7729;SDS011;3908;52.310;7.230;2023-02-26T15:38:38;2.07;;;1.20;;
7729;SDS011;3908;52.310;7.230;2023-02-26T15:41:27;1.80;;;1.03;;
7729;SDS011;3908;52.310;7.230;2023-02-26T15:44:19;1.40;;;1.07;;
7729;SDS011;3908;52.310;7.230;2023-02-26T15:47:10;1.80;;;1.20;;
7729;SDS011;3908;52.310;7.230;2023-02-26T15:50:00;1.60;;;0.80;;
7729;SDS011;3908;52.310;7.230;2023-02-26T15:52:50;1.60;;;0.90;;
7729;SDS011;3908;52.310;7.230;2023-02-26T15:55:44;1.43;;;0.90;;
7729;SDS011;3908;52.310;7.230;2023-02-26T15:58:36;2.20;;;1.03;;
7729;SDS011;3908;52.310;7.230;2023-02-26T16:01:29;1.73;;;0.97;;
7729;SDS011;3908;52.310;7.230;2023-02-26T16:04:17;1.07;;;1.00;;
7729;SDS011;3908;52.310;7.230;2023-02-26T16:07:08;2.20;;;0.97;;
7729;SDS011;3908;52.310;7.230;2023-02-26T16:10:02;2.23;;;1.00;;
7729;SDS011;3908;52.310;7.230;2023-02-26T16:12:51;2.10;;;1.10;;
7729;SDS011;3908;52.310;7.230;2023-02-26T16:15:39;1.00;;;0.93;;
7729;SDS011;3908;52.310;7.230;2023-02-26T16:18:29;2.70;;;1.00;;
7729;SDS011;3908;52.310;7.230;2023-02-26T16:21:21;1.33;;;0.97;;
7729;SDS011;3908;52.310;7.230;2023-02-26T16:24:14;3.80;;;1.40;;
7729;SDS011;3908;52.310;7.230;2023-02-26T16:27:04;4.73;;;1.20;;
7729;SDS011;3908;52.310;7.230;2023-02-26T16:29:55;1.40;;;1.00;;
7729;SDS011;3908;52.310;7.230;2023-02-26T16:32:44;2.90;;;0.97;;
7729;SDS011;3908;52.310;7.230;2023-02-26T16:35:37;2.80;;;1.30;;
7729;SDS011;3908;52.310;7.230;2023-02-26T16:38:30;1.13;;;0.93;;
7729;SDS011;3908;52.310;7.230;2023-02-26T16:41:20;1.10;;;1.00;;
7729;SDS011;3908;52.310;7.230;2023-02-26T16:44:36;4.50;;;1.27;;
7729;SDS011;3908;52.310;7.230;2023-02-26T16:47:30;2.03;;;1.30;;
7729;SDS011;3908;52.310;7.230;2023-02-26T16:50:18;1.73;;;1.50;;
7729;SDS011;3908;52.310;7.230;2023-02-26T16:53:14;2.27;;;1.10;;
7729;SDS011;3908;52.310;7.230;2023-02-26T16:56:04;1.73;;;1.10;;
7729;SDS011;3908;52.310;7.230;2023-02-26T16:58:53;2.00;;;1.53;;
7729;SDS011;3908;52.310;7.230;2023-02-26T17:01:49;1.00;;;1.00;;
7729;SDS011;3908;52.310;7.230;2023-02-26T17:04:38;2.83;;;1.17;;
7729;SDS011;3908;52.310;7.230;2023-02-26T17:07:28;3.50;;;1.50;;
7729;SDS011;3908;52.310;7.230;2023-02-26T17:10:20;2.70;;;1.27;;
7729;SDS011;3908;52.310;7.230;2023-02-26T17:13:12;4.87;;;1.40;;
7729;SDS011;3908;52.310;7.230;2023-02-26T17:16:02;3.83;;;1.40;;
7729;SDS011;3908;52.310;7.230;2023-02-26T17:18:51;1.57;;;1.30;;
7729;SDS011;3908;52.310;7.230;2023-02-26T17:21:40;1.60;;;1.20;;
7729;SDS011;3908;52.310;7.230;2023-02-26T17:24:30;2.23;;;1.67;;
7729;SDS011;3908;52.310;7.230;2023-02-26T17:27:23;1.83;;;1.27;;
7729;SDS011;3908;52.310;7.230;2023-02-26T17:30:15;2.97;;;1.77;;
7729;SDS011;3908;52.310;7.230;2023-02-26T17:33:04;3.03;;;1.73;;
7729;SDS011;3908;52.310;7.230;2023-02-26T17:35:53;2.07;;;1.50;;
7729;SDS011;3908;52.310;7.230;2023-02-26T17:38:45;4.27;;;1.83;;
7729;SDS011;3908;52.310;7.230;2023-02-26T17:41:32;5.17;;;2.40;;
7729;SDS011;3908;52.310;7.230;2023-02-26T17:44:21;4.50;;;1.73;;
7729;SDS011;3908;52.310;7.230;2023-02-26T17:47:08;2.47;;;2.07;;
7729;SDS011;3908;52.310;7.230;2023-02-26T17:50:00;5.00;;;1.97;;
7729;SDS011;3908;52.310;7.230;2023-02-26T17:52:47;6.03;;;2.20;;
7729;SDS011;3908;52.310;7.230;2023-02-26T17:55:34;3.87;;;2.20;;
7729;SDS011;3908;52.310;7.230;2023-02-26T17:58:25;3.70;;;2.10;;
7729;SDS011;3908;52.310;7.230;2023-02-26T18:01:15;3.03;;;1.80;;
7729;SDS011;3908;52.310;7.230;2023-02-26T18:04:02;2.40;;;1.60;;
7729;SDS011;3908;52.310;7.230;2023-02-26T18:06:49;4.40;;;1.60;;
7729;SDS011;3908;52.310;7.230;2023-02-26T18:09:36;3.00;;;1.83;;